createdAt,value
2019-04-11T00:03:05.155Z,101741.58
2019-04-11T00:05:35.074Z,101742.34
2019-04-11T00:08:14.593Z,101741.99
2019-04-11T00:10:45.020Z,101742.44
2019-04-11T00:13:36.250Z,101746.91
2019-04-11T00:16:25.478Z,101742.59
2019-04-11T00:19:01.046Z,101743.51
2019-04-11T00:21:30.924Z,101749.38
2019-04-11T00:24:21.265Z,101744.08
2019-04-11T00:26:50.781Z,101749.47
2019-04-11T00:29:20.579Z,101745.06
2019-04-11T00:31:50.127Z,101754.09
2019-04-11T00:34:20.542Z,101750.66
2019-04-11T00:37:00.990Z,101756.08
2019-04-11T00:39:37.574Z,101749.57
2019-04-11T00:42:17.374Z,101760.72
2019-04-11T00:44:57.335Z,101754.98
2019-04-11T00:47:26.944Z,101755.52
2019-04-11T00:52:57.976Z,101762.27
2019-04-11T00:55:48.164Z,101764.09
2019-04-11T00:58:17.465Z,101765.49
2019-04-11T01:00:47.245Z,101765.64
2019-04-11T01:03:36.061Z,101764.39
2019-04-11T01:06:46.525Z,101769.86
2019-04-11T01:09:36.720Z,101774.89
2019-04-11T01:12:12.484Z,101769.77
2019-04-11T01:14:42.706Z,101771.18
2019-04-11T01:17:32.310Z,101779.25
2019-04-11T01:23:22.792Z,101781.20
2019-04-11T01:25:59.202Z,101770.22
2019-04-11T01:28:28.916Z,101780.92
2019-04-11T01:34:14.186Z,101781.61
2019-04-11T01:36:45.374Z,101786.57
2019-04-11T01:39:35.016Z,101784.91
2019-04-11T01:45:11.523Z,101788.80
2019-04-11T01:50:57.073Z,101790.68
2019-04-11T01:53:37.362Z,101787.24
2019-04-11T01:56:14.826Z,101788.63
2019-04-11T02:04:54.369Z,101789.13
2019-04-11T02:07:31.026Z,101791.84
2019-04-11T02:10:06.931Z,101794.02
2019-04-11T02:12:37.411Z,101797.59
2019-04-11T02:18:23.563Z,101813.53
2019-04-11T02:20:54.233Z,101809.13
2019-04-11T02:28:53.396Z,101817.16
2019-04-11T02:31:23.208Z,101813.16
2019-04-11T02:34:00.031Z,101816.68
2019-04-11T02:36:38.238Z,101818.50
2019-04-11T02:39:17.650Z,101824.31
2019-04-11T02:41:54.935Z,101824.00
2019-04-11T02:44:46.128Z,101818.69
2019-04-11T02:50:43.353Z,101821.42
2019-04-11T02:53:14.819Z,101823.30
2019-04-11T02:56:31.259Z,101825.09
2019-04-11T02:59:06.739Z,101825.95
2019-04-11T03:01:37.021Z,101827.28
2019-04-11T03:04:14.829Z,101826.37
2019-04-11T03:06:55.336Z,101826.30
2019-04-11T03:09:31.357Z,101835.11
2019-04-11T03:12:12.007Z,101827.52
2019-04-11T03:15:10.425Z,101836.39
2019-04-11T03:17:34.243Z,101833.25
2019-04-11T03:23:09.878Z,101835.05
2019-04-11T03:29:08.771Z,101840.19
2019-04-11T03:32:31.645Z,101839.75
2019-04-11T03:35:09.260Z,101840.61
2019-04-11T03:39:59.530Z,101844.47
2019-04-11T03:42:50.328Z,101838.24
2019-04-11T03:45:33.212Z,101844.84
2019-04-11T03:48:04.359Z,101842.59
2019-04-11T03:51:03.904Z,101846.11
2019-04-11T03:53:40.922Z,101843.98
2019-04-11T03:56:18.266Z,101849.38
2019-04-11T04:02:17.115Z,101847.31
2019-04-11T04:04:54.108Z,101849.19
2019-04-11T04:07:31.820Z,101852.28
2019-04-11T04:10:13.116Z,101846.55
2019-04-11T04:12:47.507Z,101853.66
2019-04-11T04:18:38.171Z,101854.36
2019-04-11T04:21:19.278Z,101854.36
2019-04-11T04:27:38.776Z,101855.68
2019-04-11T04:33:16.867Z,101863.71
2019-04-11T04:36:34.929Z,101866.42
2019-04-11T04:42:46.079Z,101876.69
2019-04-11T04:48:12.519Z,101886.42
2019-04-11T04:50:42.204Z,101884.31
2019-04-11T04:53:23.663Z,101887.06
2019-04-11T04:58:58.421Z,101894.20
2019-04-11T05:01:55.448Z,101896.88
2019-04-11T05:07:23.584Z,101907.19
2019-04-11T05:10:32.741Z,101908.52
2019-04-11T05:13:10.089Z,101912.98
2019-04-11T05:16:03.820Z,101917.87
2019-04-11T05:18:26.460Z,101916.55
2019-04-11T05:20:56.881Z,101925.85
2019-04-11T05:24:26.453Z,101916.55
2019-04-11T05:27:22.947Z,101919.14
2019-04-11T05:30:18.760Z,101929.77
2019-04-11T05:32:55.737Z,101928.98
2019-04-11T05:35:36.232Z,101930.36
2019-04-11T05:38:15.250Z,101931.27
2019-04-11T05:41:04.153Z,101931.64
2019-04-11T05:43:55.716Z,101931.64
2019-04-11T05:46:57.200Z,101936.95
2019-04-11T05:50:10.048Z,101933.83
2019-04-11T05:52:50.390Z,101937.27
2019-04-11T05:55:43.344Z,101936.84
2019-04-11T05:58:17.573Z,101939.45
2019-04-11T06:01:06.461Z,101940.29
2019-04-11T06:09:35.072Z,101940.03
2019-04-11T06:12:41.416Z,101944.27
2019-04-11T06:18:50.149Z,101948.80
2019-04-11T06:24:20.322Z,101954.34
2019-04-11T06:27:11.351Z,101961.34
2019-04-11T06:30:40.128Z,101960.53
2019-04-11T06:33:29.372Z,101963.02
2019-04-11T06:36:18.197Z,101964.70
2019-04-11T06:42:05.589Z,101962.06
2019-04-11T07:02:13.716Z,101963.12
2019-04-11T07:16:36.178Z,101974.30
2019-04-11T07:19:26.515Z,101974.30
2019-04-11T07:21:56.113Z,101975.19
2019-04-11T07:24:45.355Z,101977.20
2019-04-11T07:27:15.969Z,101973.78
2019-04-11T07:36:29.677Z,101989.41
2019-04-11T07:39:18.257Z,101988.06
2019-04-11T07:42:07.596Z,101990.97
2019-04-11T07:45:04.182Z,101987.13
2019-04-11T07:48:19.326Z,101983.98
2019-04-11T07:57:22.533Z,101981.25
2019-04-11T08:03:51.343Z,101991.10
2019-04-11T08:06:41.127Z,101989.44
2019-04-11T08:15:33.526Z,101997.28
2019-04-11T08:18:35.018Z,101995.11
2019-04-11T08:21:23.605Z,101995.11
2019-04-11T08:24:12.175Z,101994.48
2019-04-11T08:27:20.055Z,101993.14
2019-04-11T08:32:50.226Z,102001.97
2019-04-11T08:35:40.227Z,102004.72
2019-04-11T08:38:56.443Z,102004.39
2019-04-11T08:41:51.669Z,102007.68
2019-04-11T08:44:21.618Z,102009.37
2019-04-11T08:50:30.833Z,102014.23
2019-04-11T08:53:20.519Z,102018.02
2019-04-11T08:56:23.183Z,102011.05
2019-04-11T08:59:31.901Z,102011.05
2019-04-11T09:02:02.526Z,102016.59
2019-04-11T09:05:22.865Z,102016.34
2019-04-11T09:08:11.483Z,102014.55
2019-04-11T09:11:20.466Z,102020.77
2019-04-11T09:14:09.311Z,102016.22
2019-04-11T09:16:58.293Z,102007.03
2019-04-11T09:19:47.291Z,102010.40
2019-04-11T09:22:35.759Z,102008.72
2019-04-11T09:33:47.330Z,101997.55
2019-04-11T09:36:38.725Z,102001.10
2019-04-11T09:39:35.002Z,102002.16
2019-04-11T09:42:30.353Z,101996.06
2019-04-11T09:45:19.632Z,101994.16
2019-04-11T09:48:14.762Z,101989.05
2019-04-11T09:51:05.897Z,101994.16
2019-04-11T09:59:51.758Z,102000.17
2019-04-11T10:03:00.835Z,101994.05
2019-04-11T10:06:09.400Z,101991.09
2019-04-11T10:11:40.133Z,101989.69
2019-04-11T10:17:10.587Z,101986.73
2019-04-11T10:19:46.496Z,101989.91
2019-04-11T10:22:46.032Z,101988.84
2019-04-11T10:28:30.630Z,101988.72
2019-04-11T10:34:21.647Z,101990.87
2019-04-11T10:48:07.612Z,101991.06
2019-04-11T10:50:56.235Z,101988.55
2019-04-11T10:53:27.497Z,101994.16
2019-04-11T10:56:16.241Z,101997.31
2019-04-11T11:02:00.306Z,101996.61
2019-04-11T11:10:46.024Z,101999.78
2019-04-11T11:13:36.021Z,102005.83
2019-04-11T11:16:45.513Z,102004.67
2019-04-11T11:19:56.285Z,102002.94
2019-04-11T11:22:39.065Z,102003.63
2019-04-11T11:25:33.031Z,102003.63
2019-04-11T11:28:03.574Z,102013.84
2019-04-11T11:31:12.070Z,102019.55
2019-04-11T11:36:41.876Z,102018.77
2019-04-11T11:39:33.209Z,102017.78
2019-04-11T11:42:28.293Z,102024.97
2019-04-11T11:45:37.350Z,102024.02
2019-04-11T11:48:26.359Z,102017.63
2019-04-11T11:54:11.532Z,102025.50
2019-04-11T11:59:40.804Z,102019.92
2019-04-11T12:05:49.038Z,102033.48
2019-04-11T12:08:48.280Z,102032.41
2019-04-11T12:14:39.959Z,102034.05
2019-04-11T12:17:37.235Z,102025.28
2019-04-11T12:22:53.669Z,102035.25
2019-04-11T12:26:01.846Z,102035.22
2019-04-11T12:28:52.267Z,102037.00
2019-04-11T12:31:28.708Z,102033.69
2019-04-11T12:34:18.634Z,102031.02
2019-04-11T12:37:27.533Z,102028.63
2019-04-11T12:40:15.983Z,102035.19
2019-04-11T12:42:45.636Z,102035.97
2019-04-11T12:45:55.059Z,102030.14
2019-04-11T12:48:39.140Z,102026.51
2019-04-11T12:51:48.715Z,102026.51
2019-04-11T12:57:17.064Z,102020.22
2019-04-11T13:02:48.007Z,102017.54
2019-04-11T13:05:36.802Z,102014.34
2019-04-11T13:08:25.280Z,102016.89
2019-04-11T13:10:54.827Z,102018.24
2019-04-11T13:13:43.335Z,102012.70
2019-04-11T13:19:32.276Z,102016.38
2019-04-11T13:25:02.828Z,102009.07
2019-04-11T13:36:14.019Z,102001.42
2019-04-11T13:42:23.750Z,102005.41
2019-04-11T13:44:53.114Z,102005.14
2019-04-11T13:47:41.896Z,102003.29
2019-04-11T13:53:30.371Z,102005.02
2019-04-11T13:59:07.251Z,102004.94
2019-04-11T14:02:15.247Z,102000.24
2019-04-11T14:05:25.098Z,102000.54
2019-04-11T14:13:51.384Z,101990.16
2019-04-11T14:16:41.701Z,101989.13
2019-04-11T14:19:36.295Z,101990.99
2019-04-11T14:33:55.564Z,101972.22
2019-04-11T14:36:49.637Z,101975.03
2019-04-11T14:42:17.215Z,101974.49
2019-04-11T14:48:01.181Z,101977.36
2019-04-11T14:53:46.651Z,101972.87
2019-04-11T14:59:45.327Z,101969.59
2019-04-11T15:02:33.952Z,101972.55
2019-04-11T15:11:04.284Z,101963.22
2019-04-11T15:17:07.629Z,101965.77
2019-04-11T15:19:37.002Z,101967.20
2019-04-11T15:22:25.476Z,101960.02
2019-04-11T15:25:15.593Z,101970.30
2019-04-11T15:28:04.202Z,101953.54
2019-04-11T15:30:52.707Z,101960.61
2019-04-11T15:37:12.972Z,101964.70
2019-04-11T15:40:01.467Z,101953.08
2019-04-11T15:42:50.200Z,101962.27
2019-04-11T15:45:38.998Z,101960.92
2019-04-11T15:48:27.475Z,101957.63
2019-04-11T15:51:16.241Z,101961.38
2019-04-11T15:57:00.236Z,101954.77
2019-04-11T15:59:49.040Z,101960.48
2019-04-11T16:02:50.522Z,101954.89
2019-04-11T16:05:39.332Z,101954.89
2019-04-11T16:08:27.818Z,101951.68
2019-04-11T16:11:16.324Z,101957.97
2019-04-11T16:14:05.109Z,101956.39
2019-04-11T16:19:32.549Z,101955.08
2019-04-11T16:27:42.878Z,101957.91
2019-04-11T16:33:52.301Z,101956.41
2019-04-11T16:39:36.505Z,101955.23
2019-04-11T16:45:06.148Z,101960.70
2019-04-11T16:47:56.948Z,101961.67
2019-04-11T16:50:26.529Z,101960.58
2019-04-11T16:52:56.197Z,101969.09
2019-04-11T16:55:27.687Z,101967.45
2019-04-11T16:57:57.124Z,101967.45
2019-04-11T17:00:26.874Z,101960.62
2019-04-11T17:02:56.274Z,101962.92
2019-04-11T17:05:26.798Z,101969.65
2019-04-11T17:13:57.049Z,101970.72
2019-04-11T17:19:37.183Z,101985.19
2019-04-11T17:22:08.279Z,101987.98
2019-04-11T17:24:58.251Z,101994.83
2019-04-11T17:27:27.910Z,101997.48
2019-04-11T17:30:16.694Z,102002.13
2019-04-11T17:33:05.574Z,102008.25
2019-04-11T17:35:47.258Z,102014.05
2019-04-11T17:38:16.619Z,102014.05
2019-04-11T17:41:05.887Z,102013.59
2019-04-11T17:43:35.249Z,102013.59
2019-04-11T17:46:04.624Z,102011.61
2019-04-11T17:48:53.392Z,102019.39
2019-04-11T17:51:22.877Z,102019.39
2019-04-11T17:54:04.708Z,102022.13
2019-04-11T17:56:46.480Z,102031.25
2019-04-11T17:59:16.130Z,102031.25
2019-04-11T18:01:45.532Z,102034.95
2019-04-11T18:04:15.538Z,102041.86
2019-04-11T18:06:47.186Z,102037.52
2019-04-11T18:12:03.307Z,102047.72
2019-04-11T18:14:32.661Z,102047.72
2019-04-11T18:17:16.589Z,102043.09
2019-04-11T18:19:46.314Z,102048.21
2019-04-11T18:22:15.751Z,102048.21
2019-04-11T18:24:45.442Z,102057.92
2019-04-11T18:27:14.809Z,102057.92
2019-04-11T18:29:56.731Z,102069.90
2019-04-11T18:32:26.398Z,102069.90
2019-04-11T18:34:55.754Z,102072.30
2019-04-11T18:37:44.318Z,102076.44
2019-04-11T18:43:59.723Z,102075.56
2019-04-11T18:46:29.679Z,102075.56
2019-04-11T18:48:59.063Z,102086.09
2019-04-11T18:51:30.441Z,102085.23
2019-04-11T18:54:08.613Z,102096.96
2019-04-11T18:56:38.432Z,102095.45
2019-04-11T18:59:23.078Z,102093.52
2019-04-11T19:05:02.828Z,102094.16
2019-04-11T19:07:56.949Z,102097.11
2019-04-11T19:10:28.196Z,102097.11
2019-04-11T19:12:57.557Z,102095.44
2019-04-11T19:15:29.074Z,102101.13
2019-04-11T19:18:06.375Z,102104.41
2019-04-11T19:20:29.798Z,102104.41
2019-04-11T19:22:59.764Z,102104.33
2019-04-11T19:25:31.541Z,102111.13
2019-04-11T19:28:00.531Z,102114.95
2019-04-11T19:30:29.887Z,102114.95
2019-04-11T19:32:59.501Z,102114.22
2019-04-11T19:35:28.861Z,102114.22
2019-04-11T19:37:59.117Z,102123.59
2019-04-11T19:40:30.429Z,102119.09
2019-04-11T19:43:00.018Z,102112.28
2019-04-11T19:45:29.682Z,102116.15
2019-04-11T19:47:59.337Z,102119.56
2019-04-11T19:50:29.653Z,102119.23
2019-04-11T19:53:02.634Z,102119.12
2019-04-11T19:55:34.566Z,102119.12
2019-04-11T19:58:03.542Z,102117.38
2019-04-11T20:00:33.654Z,102119.72
2019-04-11T20:03:03.019Z,102121.70
2019-04-11T20:05:32.499Z,102118.28
2019-04-11T20:08:01.867Z,102118.28
2019-04-11T20:10:31.850Z,102122.48
2019-04-11T20:13:02.014Z,102122.15
2019-04-11T20:15:37.001Z,102123.48
2019-04-11T20:18:02.959Z,102127.06
2019-04-11T20:20:36.877Z,102126.50
2019-04-11T20:23:03.657Z,102126.50
2019-04-11T20:25:33.997Z,102123.48
2019-04-11T20:28:03.634Z,102120.14
2019-04-11T20:30:32.997Z,102120.14
2019-04-11T20:33:03.212Z,102124.97
2019-04-11T20:35:34.470Z,102124.97
2019-04-11T20:38:03.822Z,102123.85
2019-04-11T20:40:33.555Z,102128.28
2019-04-11T20:43:02.919Z,102128.83
2019-04-11T20:45:34.227Z,102128.94
2019-04-11T20:48:03.671Z,102130.39
2019-04-11T20:50:33.029Z,102130.39
2019-04-11T20:53:12.094Z,102132.39
2019-04-11T20:55:33.707Z,102135.24
2019-04-11T20:58:03.063Z,102137.17
2019-04-11T21:00:33.022Z,102134.33
2019-04-11T21:03:02.690Z,102131.41
2019-04-11T21:05:32.835Z,102131.41
2019-04-11T21:08:03.079Z,102135.42
2019-04-11T21:10:34.048Z,102135.53
2019-04-11T21:13:06.890Z,102129.50
2019-04-11T21:15:34.998Z,102137.34
2019-04-11T21:18:04.675Z,102139.79
2019-04-11T21:20:34.052Z,102140.27
2019-04-11T21:23:03.703Z,102143.73
2019-04-11T21:25:33.062Z,102138.00
2019-04-11T21:28:02.726Z,102144.45
2019-04-11T21:30:32.102Z,102147.31
2019-04-11T21:33:03.597Z,102145.56
2019-04-11T21:35:33.484Z,102148.34
2019-04-11T21:38:03.312Z,102151.08
2019-04-11T21:40:35.587Z,102158.22
2019-04-11T21:43:06.210Z,102159.04
2019-04-11T21:45:35.963Z,102152.86
2019-04-11T21:48:06.850Z,102155.54
2019-04-11T21:50:40.264Z,102150.77
2019-04-11T21:53:07.840Z,102152.25
2019-04-11T21:55:37.456Z,102152.25
2019-04-11T21:58:06.860Z,102153.06
2019-04-11T22:00:39.811Z,102156.70
2019-04-11T22:03:12.194Z,102156.77
2019-04-11T22:05:46.145Z,102158.59
2019-04-11T22:08:15.736Z,102163.19
2019-04-11T22:10:45.143Z,102159.61
2019-04-11T22:13:14.794Z,102158.20
2019-04-11T22:15:44.677Z,102158.20
2019-04-11T22:18:16.774Z,102159.36
2019-04-11T22:20:45.873Z,102161.52
2019-04-11T22:23:15.332Z,102161.36
2019-04-11T22:25:45.217Z,102161.64
2019-04-11T22:28:15.221Z,102163.35
2019-04-11T22:30:45.395Z,102163.35
2019-04-11T22:33:27.622Z,102157.42
2019-04-11T22:35:59.330Z,102163.97
2019-04-11T22:38:30.735Z,102159.69
2019-04-11T22:41:01.769Z,102170.03
2019-04-11T22:43:31.416Z,102159.92
2019-04-11T22:46:01.316Z,102160.47
2019-04-11T22:48:30.978Z,102162.80
2019-04-11T22:51:01.885Z,102158.78
2019-04-11T22:53:31.242Z,102165.05
2019-04-11T22:56:01.264Z,102162.55
2019-04-11T22:58:31.849Z,102163.88
2019-04-11T23:01:01.313Z,102164.77
2019-04-11T23:03:33.634Z,102162.68
2019-04-11T23:06:03.220Z,102169.94
2019-04-11T23:08:33.079Z,102169.11
2019-04-11T23:11:02.746Z,102165.58
2019-04-11T23:13:32.110Z,102170.61
2019-04-11T23:16:01.489Z,102168.35
2019-04-11T23:18:31.096Z,102171.02
2019-04-11T23:21:00.477Z,102164.78
2019-04-11T23:23:30.124Z,102165.91
2019-04-11T23:25:59.497Z,102170.52
2019-04-11T23:28:28.958Z,102167.98
2019-04-11T23:30:58.321Z,102169.25
2019-04-11T23:33:27.998Z,102166.09
2019-04-11T23:35:57.363Z,102167.91
2019-04-11T23:38:28.290Z,102172.75
2019-04-11T23:40:57.950Z,102165.72
2019-04-11T23:43:27.644Z,102170.17
2019-04-11T23:45:57.292Z,102168.07
2019-04-11T23:48:26.626Z,102169.41
2019-04-11T23:50:56.042Z,102170.91
2019-04-11T23:53:28.156Z,102171.41
2019-04-11T23:55:59.952Z,102168.39
2019-04-11T23:58:31.800Z,102174.23
